Time;durP1;ratioP1;P1;durP2;ratioP2;P2;SDS_P1;SDS_P2;PMS_P1;PMS_P2;Temp;Humidity;BMP_temperature;BMP_pressure;BME280_temperature;BME280_humidity;BME280_pressure;Samples;Min_cycle;Max_cycle;Signal;HPM_P1;HPM_P2
2022/12/20 00:00:05;;;;;;;;;;;;;;;8.38;61.78;102354.66;5028002;28;19925;-74
2022/12/20 00:02:50;;;;;;;;;;;;;;;8.29;62.43;102357.00;5034488;28;20393;-75
2022/12/20 00:05:41;;;;;;;;;;;;;;;8.26;62.80;102356.69;5020123;28;20386;-75
2022/12/20 00:08:25;;;;;;;;;;;;;;;8.27;62.54;102359.16;5025954;28;19918;-75
2022/12/20 00:11:10;;;;;;;;;;;;;;;8.36;61.39;102356.81;5024985;28;20385;-75
2022/12/20 00:13:55;;;;;;;;;;;;;;;8.40;61.21;102353.31;5017787;28;20386;-75
2022/12/20 00:16:40;;;;;;;;;;;;;;;8.43;61.15;102336.53;5034947;28;19917;-76
2022/12/20 00:19:24;;;;;;;;;;;;;;;8.38;61.42;102343.81;5033307;28;19917;-75
2022/12/20 00:22:09;;;;;;;;;;;;;;;8.38;61.62;102339.19;5020888;28;19917;-75
2022/12/20 00:24:53;;;;;;;;;;;;;;;8.37;61.23;102337.59;5018647;28;20377;-76
2022/12/20 00:27:37;;;;;;;;;;;;;;;8.38;60.95;102327.56;5033583;28;20298;-75
2022/12/20 00:30:22;;;;;;;;;;;;;;;8.41;60.72;102338.69;5035819;28;19917;-75
2022/12/20 00:33:06;;;;;;;;;;;;;;;8.40;60.79;102326.22;5038575;28;19917;-76
2022/12/20 00:35:51;;;;;;;;;;;;;;;8.44;60.55;102330.03;5032894;28;19917;-76
2022/12/20 00:38:37;;;;;;;;;;;;;;;8.28;61.74;102341.81;5033279;28;19917;-75
2022/12/20 00:41:23;;;;;;;;;;;;;;;8.22;62.15;102332.03;5033461;28;19917;-77
2022/12/20 00:44:08;;;;;;;;;;;;;;;8.10;62.73;102336.78;5033106;28;19917;-77
2022/12/20 00:46:53;;;;;;;;;;;;;;;8.10;62.81;102334.91;5025727;28;19921;-79
2022/12/20 00:49:38;;;;;;;;;;;;;;;8.30;62.35;102336.97;5033977;28;19921;-79
2022/12/20 00:52:22;;;;;;;;;;;;;;;8.36;62.47;102330.53;5040668;28;19917;-79
2022/12/20 00:55:08;;;;;;;;;;;;;;;8.39;62.32;102335.41;5041654;28;19917;-76
2022/12/20 00:57:52;;;;;;;;;;;;;;;8.46;62.35;102332.47;5024880;28;19925;-76
2022/12/20 01:00:38;;;;;;;;;;;;;;;8.44;61.78;102331.91;5031703;28;19917;-75
2022/12/20 01:03:23;;;;;;;;;;;;;;;8.37;61.86;102328.63;5032909;28;20297;-75
2022/12/20 01:06:08;;;;;;;;;;;;;;;8.30;62.75;102338.88;5021169;28;19925;-78
2022/12/20 01:08:53;;;;;;;;;;;;;;;8.24;63.17;102329.84;5018128;28;19921;-79
2022/12/20 01:11:38;;;;;;;;;;;;;;;8.27;63.33;102328.53;5033620;28;19922;-76
2022/12/20 01:14:23;;;;;;;;;;;;;;;8.31;63.28;102327.78;5050450;28;19916;-75
2022/12/20 01:17:07;;;;;;;;;;;;;;;8.17;63.63;102315.72;5024305;28;19923;-76
2022/12/20 01:19:51;;;;;;;;;;;;;;;8.20;63.74;102315.19;5033141;28;19917;-77
2022/12/20 01:22:36;;;;;;;;;;;;;;;8.19;63.68;102313.56;5018487;28;19936;-79
2022/12/20 01:25:20;;;;;;;;;;;;;;;8.18;63.77;102316.56;5019265;28;20293;-78
2022/12/20 01:28:04;;;;;;;;;;;;;;;8.18;63.76;102320.03;5033882;28;19921;-79
2022/12/20 01:30:49;;;;;;;;;;;;;;;8.13;63.81;102311.88;5022363;28;20297;-79
2022/12/20 01:33:33;;;;;;;;;;;;;;;8.18;63.80;102309.22;5035225;28;19918;-78
2022/12/20 01:36:19;;;;;;;;;;;;;;;8.19;63.47;102318.97;5031116;28;19921;-78
2022/12/20 01:39:04;;;;;;;;;;;;;;;8.14;63.71;102310.81;5041203;28;19942;-77
2022/12/20 01:41:48;;;;;;;;;;;;;;;8.18;64.13;102311.13;5010814;28;19921;-77
2022/12/20 01:44:42;;;;;;;;;;;;;;;8.27;63.40;102307.69;5033305;28;19917;-78
2022/12/20 01:47:28;;;;;;;;;;;;;;;8.35;62.96;102303.69;5021641;28;19921;-78
2022/12/20 01:50:13;;;;;;;;;;;;;;;8.38;62.69;102306.66;5027528;28;19917;-78
2022/12/20 01:52:58;;;;;;;;;;;;;;;8.48;62.01;102301.31;5034310;28;19917;-79
2022/12/20 01:55:46;;;;;;;;;;;;;;;8.36;62.22;102291.75;5048695;28;19917;-78
2022/12/20 01:58:31;;;;;;;;;;;;;;;8.24;62.87;102275.66;5027269;28;19917;-78
2022/12/20 02:01:16;;;;;;;;;;;;;;;8.19;62.94;102272.91;5044467;28;19916;-78
2022/12/20 02:04:00;;;;;;;;;;;;;;;8.23;62.81;102263.19;5027010;28;19917;-79
2022/12/20 02:06:44;;;;;;;;;;;;;;;8.33;62.46;102260.56;5019505;28;19921;-79
2022/12/20 02:09:32;;;;;;;;;;;;;;;8.46;61.84;102262.00;5032923;28;19917;-78
2022/12/20 02:12:21;;;;;;;;;;;;;;;8.44;62.00;102256.84;5022697;28;19929;-77
2022/12/20 02:15:20;;;;;;;;;;;;;;;8.41;62.08;102262.78;5029017;28;19916;-80
2022/12/20 02:18:11;;;;;;;;;;;;;;;8.25;63.10;102258.31;5035618;28;20397;-79
2022/12/20 02:20:59;;;;;;;;;;;;;;;8.30;62.73;102257.56;5034309;28;19917;-79
2022/12/20 02:23:52;;;;;;;;;;;;;;;8.25;62.72;102252.91;5022162;28;19917;-78
2022/12/20 02:26:41;;;;;;;;;;;;;;;8.21;62.83;102243.69;5032926;28;19920;-79
2022/12/20 02:29:44;;;;;;;;;;;;;;;8.27;63.05;102250.75;5037403;28;20394;-79
2022/12/20 02:32:34;;;;;;;;;;;;;;;8.37;61.72;102244.63;5036769;28;19917;-78
2022/12/20 02:35:22;;;;;;;;;;;;;;;8.24;61.35;102243.13;5036157;28;19917;-77
2022/12/20 02:38:28;;;;;;;;;;;;;;;8.25;61.58;102252.09;5050912;28;20301;-78
2022/12/20 02:41:14;;;;;;;;;;;;;;;8.30;61.05;102244.03;5037562;28;19917;-79
2022/12/20 02:47:08;;;;;;;;;;;;;;;8.34;60.99;102251.34;5020799;28;19925;-77
2022/12/20 02:49:53;;;;;;;;;;;;;;;8.34;60.99;102245.94;5004694;28;19917;-78
2022/12/20 02:52:38;;;;;;;;;;;;;;;8.24;61.31;102234.19;5036105;28;19917;-79
2022/12/20 02:55:29;;;;;;;;;;;;;;;8.39;60.87;102232.41;5025599;28;19921;-76
2022/12/20 02:58:26;;;;;;;;;;;;;;;8.28;61.06;102235.31;5038402;28;19917;-79
2022/12/20 03:01:15;;;;;;;;;;;;;;;8.22;60.87;102234.47;5031071;28;19917;-78
2022/12/20 03:04:00;;;;;;;;;;;;;;;8.26;61.16;102237.47;5025827;28;19917;-80
2022/12/20 03:06:55;;;;;;;;;;;;;;;8.30;60.72;102233.19;5037674;28;19921;-79
2022/12/20 03:09:41;;;;;;;;;;;;;;;8.23;58.35;102224.44;5014271;28;20313;-80
2022/12/20 03:12:25;;;;;;;;;;;;;;;8.09;58.48;102216.78;5036339;28;19917;-80
2022/12/20 03:15:10;;;;;;;;;;;;;;;8.06;59.76;102219.19;5024081;28;19917;-80
2022/12/20 03:17:54;;;;;;;;;;;;;;;8.14;59.48;102221.41;5017883;28;20321;-80
2022/12/20 03:20:41;;;;;;;;;;;;;;;8.10;59.45;102214.88;5040541;28;19917;-78
2022/12/20 03:23:26;;;;;;;;;;;;;;;8.14;59.03;102222.22;5037277;28;19917;-79
2022/12/20 03:26:10;;;;;;;;;;;;;;;8.31;58.09;102229.41;5020630;28;19921;-79
2022/12/20 03:29:00;;;;;;;;;;;;;;;8.40;57.42;102225.91;5035414;28;19917;-79
2022/12/20 03:31:45;;;;;;;;;;;;;;;8.42;56.75;102212.13;5003971;28;19917;-78
2022/12/20 03:34:30;;;;;;;;;;;;;;;8.20;58.28;102217.66;5016476;28;19917;-80
2022/12/20 03:37:15;;;;;;;;;;;;;;;8.19;58.44;102216.00;5019560;28;19918;-80
2022/12/20 03:39:59;;;;;;;;;;;;;;;8.11;58.71;102208.38;5017720;28;20405;-78
2022/12/20 03:42:43;;;;;;;;;;;;;;;8.08;59.27;102219.72;5045135;28;19916;-73
2022/12/20 03:45:28;;;;;;;;;;;;;;;8.12;59.08;102215.44;5030663;28;19917;-77
2022/12/20 03:48:12;;;;;;;;;;;;;;;8.18;59.40;102222.50;5034170;28;19917;-74
2022/12/20 03:50:56;;;;;;;;;;;;;;;8.17;57.61;102212.75;5033634;28;19917;-75
2022/12/20 03:53:41;;;;;;;;;;;;;;;8.19;57.91;102210.59;5034043;28;20382;-75
2022/12/20 03:56:26;;;;;;;;;;;;;;;8.15;58.19;102215.72;5022639;28;19925;-76
2022/12/20 03:59:11;;;;;;;;;;;;;;;7.94;58.92;102213.16;5042193;28;19916;-75
2022/12/20 04:01:55;;;;;;;;;;;;;;;8.05;59.37;102221.09;5033747;28;19917;-76
2022/12/20 04:04:39;;;;;;;;;;;;;;;8.00;59.15;102212.94;5041910;28;19917;-76
2022/12/20 04:07:24;;;;;;;;;;;;;;;8.03;59.21;102206.16;5021084;28;19921;-76
2022/12/20 04:10:08;;;;;;;;;;;;;;;8.09;59.63;102210.53;5013388;28;19924;-76
2022/12/20 04:12:52;;;;;;;;;;;;;;;8.05;59.69;102209.44;5034081;28;19918;-76
2022/12/20 04:15:37;;;;;;;;;;;;;;;8.07;59.19;102207.28;5033792;28;19943;-76
2022/12/20 04:18:22;;;;;;;;;;;;;;;7.96;58.77;102206.41;5034089;28;20382;-76
2022/12/20 04:21:08;;;;;;;;;;;;;;;7.97;59.37;102204.53;5033109;28;19917;-76
2022/12/20 04:23:58;;;;;;;;;;;;;;;7.98;58.93;102206.94;5016830;28;19920;-76
2022/12/20 04:26:50;;;;;;;;;;;;;;;7.99;58.59;102205.06;5029459;28;19925;-75
2022/12/20 04:29:34;;;;;;;;;;;;;;;7.99;58.38;102199.63;5023274;28;19917;-75
2022/12/20 04:32:20;;;;;;;;;;;;;;;7.95;58.38;102203.94;5024677;28;20316;-75
2022/12/20 04:35:05;;;;;;;;;;;;;;;7.81;58.86;102202.78;5018571;28;20305;-75
2022/12/20 04:37:55;;;;;;;;;;;;;;;7.77;59.05;102194.38;5033541;28;19917;-77
2022/12/20 04:40:40;;;;;;;;;;;;;;;7.83;59.27;102184.34;5019882;28;19917;-77
2022/12/20 04:43:26;;;;;;;;;;;;;;;7.95;58.51;102182.28;5018792;28;19917;-77
2022/12/20 04:46:13;;;;;;;;;;;;;;;8.01;58.22;102175.81;5039789;28;19920;-78
2022/12/20 04:48:58;;;;;;;;;;;;;;;8.00;58.04;102171.47;5019975;28;19917;-77
2022/12/20 04:51:43;;;;;;;;;;;;;;;8.01;57.68;102171.22;5036370;28;19917;-76
2022/12/20 04:54:29;;;;;;;;;;;;;;;8.02;57.87;102166.63;5021496;28;19921;-78
2022/12/20 04:57:19;;;;;;;;;;;;;;;7.96;58.84;102170.38;5030205;28;19920;-76
2022/12/20 05:00:04;;;;;;;;;;;;;;;7.98;58.08;102174.44;5003864;28;19926;-78
2022/12/20 05:02:50;;;;;;;;;;;;;;;8.00;58.21;102174.19;5021413;28;19920;-76
2022/12/20 05:05:37;;;;;;;;;;;;;;;7.97;58.16;102172.84;5032748;28;20309;-80
2022/12/20 05:08:22;;;;;;;;;;;;;;;7.98;59.17;102166.31;5022917;28;19921;-79
2022/12/20 05:11:09;;;;;;;;;;;;;;;7.92;59.36;102166.56;5038375;28;20333;-78
2022/12/20 05:13:54;;;;;;;;;;;;;;;7.82;59.34;102172.75;5033709;28;19917;-78
2022/12/20 05:16:39;;;;;;;;;;;;;;;7.79;58.44;102172.41;5033227;28;19921;-80
2022/12/20 05:19:24;;;;;;;;;;;;;;;7.89;58.57;102167.06;5033894;28;19917;-76
2022/12/20 05:28:33;;;;;;;;;;;;;;;7.76;59.74;102171.06;5036748;28;19925;-76
2022/12/20 05:31:17;;;;;;;;;;;;;;;7.81;59.75;102162.97;5031516;28;20305;-76
2022/12/20 05:34:02;;;;;;;;;;;;;;;7.88;59.40;102166.25;5015444;28;19917;-76
2022/12/20 05:36:50;;;;;;;;;;;;;;;7.90;59.96;102168.72;5025256;28;19925;-77
2022/12/20 05:39:36;;;;;;;;;;;;;;;7.83;59.74;102162.69;5017231;28;19917;-77
2022/12/20 05:42:26;;;;;;;;;;;;;;;7.90;60.00;102158.69;5032163;28;20289;-78
2022/12/20 05:45:10;;;;;;;;;;;;;;;7.91;60.17;102159.50;5032372;28;19916;-76
2022/12/20 05:48:04;;;;;;;;;;;;;;;7.86;60.03;102156.78;5026093;28;19925;-77
2022/12/20 05:50:51;;;;;;;;;;;;;;;7.89;60.10;102153.53;5043592;28;19917;-79
2022/12/20 05:53:47;;;;;;;;;;;;;;;7.85;60.23;102155.13;5023408;28;19917;-77
2022/12/20 05:56:32;;;;;;;;;;;;;;;7.92;59.77;102140.31;5014000;28;19917;-77
2022/12/20 05:59:17;;;;;;;;;;;;;;;7.91;59.68;102149.50;5030985;28;19918;-76
2022/12/20 06:02:03;;;;;;;;;;;;;;;7.89;59.20;102145.41;5017464;28;20386;-76
2022/12/20 06:04:47;;;;;;;;;;;;;;;7.99;59.42;102151.69;5019545;28;19917;-76
2022/12/20 06:07:36;;;;;;;;;;;;;;;7.98;59.37;102146.53;5027595;28;19921;-76
2022/12/20 06:10:21;;;;;;;;;;;;;;;7.98;59.63;102157.38;5030998;28;20390;-76
2022/12/20 06:13:10;;;;;;;;;;;;;;;8.01;59.61;102149.56;5017311;28;19917;-75
2022/12/20 06:15:56;;;;;;;;;;;;;;;8.02;59.70;102144.97;5029935;28;19925;-77
2022/12/20 06:18:40;;;;;;;;;;;;;;;8.11;59.54;102156.91;5038684;28;20305;-77
2022/12/20 06:21:27;;;;;;;;;;;;;;;8.16;59.38;102146.91;5031136;28;19918;-76
2022/12/20 06:24:12;;;;;;;;;;;;;;;8.18;59.22;102150.16;5034259;28;19918;-77
2022/12/20 06:27:01;;;;;;;;;;;;;;;8.22;59.27;102147.75;5017770;28;19925;-76
2022/12/20 06:29:50;;;;;;;;;;;;;;;8.27;59.60;102147.78;5031289;28;19917;-77
2022/12/20 06:32:38;;;;;;;;;;;;;;;8.25;59.53;102144.50;5021162;28;19917;-76
2022/12/20 06:35:25;;;;;;;;;;;;;;;8.33;59.31;102145.94;5017905;28;19917;-76
2022/12/20 06:38:12;;;;;;;;;;;;;;;8.32;59.40;102155.16;5018707;28;19917;-77
2022/12/20 06:40:57;;;;;;;;;;;;;;;8.42;58.87;102149.78;5017686;28;19917;-76
2022/12/20 06:43:42;;;;;;;;;;;;;;;8.43;58.92;102146.78;5030710;28;19925;-76
2022/12/20 06:46:27;;;;;;;;;;;;;;;8.46;58.74;102157.09;5031041;28;20301;-78
2022/12/20 06:49:13;;;;;;;;;;;;;;;8.43;59.23;102156.81;5017993;28;20389;-78
2022/12/20 06:51:57;;;;;;;;;;;;;;;8.34;59.26;102152.97;5029523;28;20306;-78
2022/12/20 06:54:58;;;;;;;;;;;;;;;8.25;59.41;102158.06;5017714;28;20301;-78
2022/12/20 06:57:42;;;;;;;;;;;;;;;8.19;59.45;102161.81;5017509;28;19950;-78
2022/12/20 07:00:27;;;;;;;;;;;;;;;8.14;59.77;102156.38;5024818;28;19917;-78
2022/12/20 07:03:12;;;;;;;;;;;;;;;8.18;59.75;102160.19;5016990;28;19917;-78
2022/12/20 07:05:56;;;;;;;;;;;;;;;8.37;58.29;102164.13;5030801;28;20386;-77
2022/12/20 07:08:41;;;;;;;;;;;;;;;8.46;57.65;102162.53;5040797;28;19917;-77
2022/12/20 07:11:25;;;;;;;;;;;;;;;8.37;58.06;102158.69;5034811;28;19916;-78
2022/12/20 07:14:09;;;;;;;;;;;;;;;8.27;58.69;102158.63;5025204;28;19921;-77
2022/12/20 07:16:54;;;;;;;;;;;;;;;8.26;58.91;102167.00;5021766;28;19917;-78
2022/12/20 07:19:38;;;;;;;;;;;;;;;8.23;58.78;102157.50;5035188;28;19917;-81
2022/12/20 07:22:23;;;;;;;;;;;;;;;8.15;59.18;102155.31;5036765;28;19918;-77
2022/12/20 07:25:07;;;;;;;;;;;;;;;8.13;59.28;102162.88;5032568;28;19917;-79
2022/12/20 07:27:52;;;;;;;;;;;;;;;8.00;59.93;102158.75;5026713;28;19924;-78
2022/12/20 07:30:37;;;;;;;;;;;;;;;8.07;59.76;102161.22;5035016;28;20293;-79
2022/12/20 07:33:21;;;;;;;;;;;;;;;8.05;59.27;102160.66;5031006;28;19925;-78
2022/12/20 07:36:07;;;;;;;;;;;;;;;8.08;59.35;102160.13;5023049;28;20297;-78
2022/12/20 07:38:51;;;;;;;;;;;;;;;8.18;59.41;102165.59;5026026;28;19917;-79
2022/12/20 07:41:36;;;;;;;;;;;;;;;8.12;59.17;102151.25;5028417;28;19917;-78
2022/12/20 07:44:20;;;;;;;;;;;;;;;8.04;59.30;102154.44;5039107;28;19921;-78
2022/12/20 07:47:05;;;;;;;;;;;;;;;8.03;59.58;102151.97;5035073;28;19920;-80
2022/12/20 07:49:49;;;;;;;;;;;;;;;8.00;58.73;102152.50;5034942;28;19917;-80
2022/12/20 07:52:34;;;;;;;;;;;;;;;7.98;59.70;102149.25;5038875;28;19917;-79
2022/12/20 07:55:19;;;;;;;;;;;;;;;8.57;64.45;102158.78;5019825;28;19917;-82
2022/12/20 07:58:08;;;;;;;;;;;;;;;8.79;60.08;102166.69;5028575;28;19921;-80
2022/12/20 08:00:53;;;;;;;;;;;;;;;9.61;59.66;102170.28;5022329;28;19921;-80
2022/12/20 08:03:46;;;;;;;;;;;;;;;9.48;57.57;102162.69;5035970;28;19917;-81
2022/12/20 08:06:32;;;;;;;;;;;;;;;9.38;57.08;102164.34;5031518;28;19921;-80
2022/12/20 08:09:17;;;;;;;;;;;;;;;9.40;57.43;102166.75;5036857;28;19917;-80
2022/12/20 08:12:01;;;;;;;;;;;;;;;9.43;57.47;102168.94;5023330;28;19917;-80
2022/12/20 08:14:46;;;;;;;;;;;;;;;9.43;57.08;102155.38;5032053;28;20294;-79
2022/12/20 08:17:30;;;;;;;;;;;;;;;9.72;55.96;102171.91;5022536;28;19921;-79
2022/12/20 08:20:15;;;;;;;;;;;;;;;9.71;60.85;102162.94;5029603;28;19917;-79
2022/12/20 08:23:01;;;;;;;;;;;;;;;10.73;62.35;102174.31;5027201;28;20293;-79
2022/12/20 08:25:45;;;;;;;;;;;;;;;10.73;55.55;102174.31;5020226;28;19917;-80
2022/12/20 08:28:30;;;;;;;;;;;;;;;10.09;55.54;102175.09;5033293;28;19921;-80
2022/12/20 08:31:14;;;;;;;;;;;;;;;10.12;55.99;102165.56;5037378;28;19917;-83
2022/12/20 08:33:58;;;;;;;;;;;;;;;9.93;56.82;102167.25;5029477;28;19921;-81
2022/12/20 08:36:43;;;;;;;;;;;;;;;10.08;59.92;102168.03;5045256;28;20325;-80
2022/12/20 08:39:27;;;;;;;;;;;;;;;9.97;57.25;102166.44;5042984;28;19916;-80
2022/12/20 08:42:12;;;;;;;;;;;;;;;9.69;57.34;102158.88;5016209;28;19917;-81
2022/12/20 08:44:56;;;;;;;;;;;;;;;9.44;58.10;102167.88;5014342;28;19917;-79
2022/12/20 08:47:40;;;;;;;;;;;;;;;9.23;59.01;102174.38;5017823;28;20737;-80
2022/12/20 08:50:25;;;;;;;;;;;;;;;9.14;59.18;102165.97;5002248;28;19917;-80
2022/12/20 08:53:10;;;;;;;;;;;;;;;9.13;59.56;102172.47;5013857;28;19918;-80
2022/12/20 08:56:02;;;;;;;;;;;;;;;9.12;59.54;102162.69;4999395;28;19917;-81
2022/12/20 08:58:46;;;;;;;;;;;;;;;9.14;59.73;102176.81;5034943;28;20393;-80
2022/12/20 09:01:32;;;;;;;;;;;;;;;8.94;60.58;102174.03;5033288;28;19921;-80
2022/12/20 09:04:16;;;;;;;;;;;;;;;8.37;62.63;102172.25;5033868;28;19917;-80
2022/12/20 09:07:01;;;;;;;;;;;;;;;8.61;62.12;102169.06;5020770;28;19925;-80
2022/12/20 09:09:46;;;;;;;;;;;;;;;8.77;61.72;102179.72;5019063;28;19917;-80
2022/12/20 09:12:30;;;;;;;;;;;;;;;8.72;61.31;102170.75;5026502;28;20118;-80
2022/12/20 09:15:15;;;;;;;;;;;;;;;8.71;61.70;102177.25;5026360;28;19917;-80
2022/12/20 09:17:59;;;;;;;;;;;;;;;8.70;61.81;102178.31;5015573;28;19917;-80
2022/12/20 09:20:44;;;;;;;;;;;;;;;8.66;61.86;102172.63;5022802;28;19917;-79
2022/12/20 09:23:29;;;;;;;;;;;;;;;8.69;61.90;102173.97;5021280;28;19917;-80
2022/12/20 09:26:15;;;;;;;;;;;;;;;8.65;62.13;102162.03;5019896;28;20393;-80
2022/12/20 09:29:00;;;;;;;;;;;;;;;8.73;62.19;102158.81;5023574;28;19921;-79
2022/12/20 09:31:45;;;;;;;;;;;;;;;8.77;62.34;102166.16;5021607;28;19917;-80
2022/12/20 09:34:29;;;;;;;;;;;;;;;8.76;62.26;102166.41;5019663;28;19917;-80
2022/12/20 09:37:14;;;;;;;;;;;;;;;8.68;62.34;102167.75;5033247;28;19917;-80
2022/12/20 09:39:58;;;;;;;;;;;;;;;8.28;64.61;102162.94;5022052;28;19918;-80
2022/12/20 09:42:43;;;;;;;;;;;;;;;8.52;63.85;102166.88;5020043;28;20393;-80
2022/12/20 09:45:30;;;;;;;;;;;;;;;8.62;63.17;102149.84;5032658;28;19917;-80
2022/12/20 09:48:20;;;;;;;;;;;;;;;8.38;63.72;102144.03;5022230;28;19921;-81
2022/12/20 09:51:05;;;;;;;;;;;;;;;8.14;64.99;102140.13;5028140;28;19917;-80
2022/12/20 09:53:55;;;;;;;;;;;;;;;7.67;67.68;102140.94;5017993;28;22663;-80
2022/12/20 09:56:39;;;;;;;;;;;;;;;8.17;65.68;102153.16;5036530;28;20290;-80
2022/12/20 09:59:23;;;;;;;;;;;;;;;8.41;64.60;102142.72;5041631;28;19917;-80
2022/12/20 10:02:11;;;;;;;;;;;;;;;8.54;64.11;102147.63;5018730;28;20374;-80
2022/12/20 10:04:56;;;;;;;;;;;;;;;8.61;63.84;102152.81;5013670;28;19917;-79
2022/12/20 10:07:58;;;;;;;;;;;;;;;8.66;63.61;102139.25;5019244;28;19921;-78
2022/12/20 10:10:48;;;;;;;;;;;;;;;8.67;63.36;102135.47;5022031;28;19917;-78
2022/12/20 10:13:56;;;;;;;;;;;;;;;8.59;63.77;102124.06;5020044;28;19917;-79
2022/12/20 10:16:46;;;;;;;;;;;;;;;8.62;64.10;102113.78;5032257;28;20301;-79
2022/12/20 10:19:49;;;;;;;;;;;;;;;8.96;63.14;102106.78;5022596;28;19921;-79
2022/12/20 10:22:42;;;;;;;;;;;;;;;8.75;63.86;102105.09;5031979;28;19925;-79
2022/12/20 10:25:31;;;;;;;;;;;;;;;8.67;64.04;102103.75;5018527;28;19917;-78
2022/12/20 10:28:16;;;;;;;;;;;;;;;8.87;63.18;102103.78;5019442;28;19921;-76
2022/12/20 10:31:02;;;;;;;;;;;;;;;8.68;64.03;102101.84;5011356;28;19916;-78
2022/12/20 10:33:46;;;;;;;;;;;;;;;8.77;63.68;102101.06;5023170;28;19917;-78
2022/12/20 10:36:32;;;;;;;;;;;;;;;8.66;63.97;102091.28;5023943;28;19917;-78
2022/12/20 10:39:26;;;;;;;;;;;;;;;8.88;63.46;102096.47;5021126;28;20333;-79
2022/12/20 10:42:22;;;;;;;;;;;;;;;8.90;63.31;102089.66;5036866;28;19918;-78
2022/12/20 10:45:13;;;;;;;;;;;;;;;8.83;63.76;102085.63;5017451;28;19917;-78
2022/12/20 10:47:59;;;;;;;;;;;;;;;9.09;63.81;102083.72;5016139;28;20281;-79
2022/12/20 10:50:54;;;;;;;;;;;;;;;8.94;63.14;102063.63;5031224;28;19917;-77
2022/12/20 10:53:58;;;;;;;;;;;;;;;9.33;65.76;102063.91;5022670;28;19917;-81
2022/12/20 10:56:53;;;;;;;;;;;;;;;9.09;62.88;102064.72;5030078;28;19925;-77
2022/12/20 10:59:39;;;;;;;;;;;;;;;8.75;63.61;102059.00;5043529;28;19917;-79
2022/12/20 11:02:24;;;;;;;;;;;;;;;9.28;63.82;102055.75;5027745;28;19917;-80
2022/12/20 11:05:09;;;;;;;;;;;;;;;9.01;63.23;102044.38;5022639;28;19921;-77
2022/12/20 11:07:56;;;;;;;;;;;;;;;9.34;66.11;102038.38;5036650;28;19921;-79
2022/12/20 11:10:40;;;;;;;;;;;;;;;8.75;64.05;102018.31;5034908;28;19917;-81
2022/12/20 11:13:25;;;;;;;;;;;;;;;8.82;63.85;102025.13;5035105;28;19917;-77
2022/12/20 11:16:28;;;;;;;;;;;;;;;9.26;62.30;102027.25;5036554;28;19917;-78
2022/12/20 11:19:13;;;;;;;;;;;;;;;9.21;62.47;102019.13;5036134;28;19921;-78
2022/12/20 11:22:04;;;;;;;;;;;;;;;9.27;61.73;102016.13;5015484;28;20386;-81
2022/12/20 11:24:55;;;;;;;;;;;;;;;8.87;63.31;102013.47;5014250;28;20393;-77
2022/12/20 11:27:47;;;;;;;;;;;;;;;8.96;61.60;102018.06;5035713;28;19921;-79
2022/12/20 11:30:42;;;;;;;;;;;;;;;9.01;62.04;102009.09;5033511;28;19917;-79
2022/12/20 11:33:46;;;;;;;;;;;;;;;8.76;63.38;102011.81;5033556;28;20389;-79
2022/12/20 11:36:43;;;;;;;;;;;;;;;8.96;62.93;101998.25;5037930;28;19917;-80
2022/12/20 11:39:35;;;;;;;;;;;;;;;9.04;62.48;101994.97;5021362;28;20450;-79
2022/12/20 11:42:26;;;;;;;;;;;;;;;9.17;61.67;101994.44;5034422;28;19917;-80
2022/12/20 11:45:23;;;;;;;;;;;;;;;9.11;62.32;101979.25;5027536;28;19917;-79
2022/12/20 11:48:14;;;;;;;;;;;;;;;9.21;62.83;101981.94;5021483;28;19921;-79
2022/12/20 11:51:03;;;;;;;;;;;;;;;9.17;63.66;101978.16;5028956;28;19917;-79
2022/12/20 11:54:06;;;;;;;;;;;;;;;9.17;63.70;101989.00;5030648;28;20298;-76
2022/12/20 11:56:55;;;;;;;;;;;;;;;9.25;64.54;101991.16;5019869;28;19925;-78
2022/12/20 11:59:46;;;;;;;;;;;;;;;9.34;65.48;101986.00;5014987;28;19917;-78
2022/12/20 12:02:41;;;;;;;;;;;;;;;9.26;66.00;101973.78;5020701;28;19917;-79
2022/12/20 12:05:28;;;;;;;;;;;;;;;9.23;66.88;101968.09;5034882;28;19917;-79
2022/12/20 12:08:26;;;;;;;;;;;;;;;9.33;66.52;101971.59;5024337;28;19941;-79
2022/12/20 12:11:18;;;;;;;;;;;;;;;9.25;66.83;101971.34;5036688;28;20389;-80
2022/12/20 12:14:04;;;;;;;;;;;;;;;9.35;67.13;101968.59;5032974;28;19918;-78
2022/12/20 12:16:51;;;;;;;;;;;;;;;9.36;67.13;101973.75;5018810;28;19917;-78
2022/12/20 12:19:38;;;;;;;;;;;;;;;9.33;66.83;101960.75;5018677;28;19917;-79
2022/12/20 12:22:28;;;;;;;;;;;;;;;9.27;66.94;101961.84;5022972;28;19918;-77
2022/12/20 12:25:14;;;;;;;;;;;;;;;9.28;67.06;101960.75;5033513;28;20409;-77
2022/12/20 12:27:59;;;;;;;;;;;;;;;9.26;67.13;101952.06;5033838;28;19921;-78
2022/12/20 12:30:47;;;;;;;;;;;;;;;9.26;67.18;101952.06;5025056;28;19917;-79
2022/12/20 12:33:39;;;;;;;;;;;;;;;9.42;66.83;101947.41;5031776;28;19917;-78
2022/12/20 12:36:31;;;;;;;;;;;;;;;9.31;66.98;101956.66;5021149;28;19917;-78
2022/12/20 12:39:19;;;;;;;;;;;;;;;9.41;66.65;101932.19;5033701;28;19924;-77
2022/12/20 12:42:12;;;;;;;;;;;;;;;9.41;66.33;101946.59;5027927;28;20333;-77
2022/12/20 12:45:01;;;;;;;;;;;;;;;9.24;67.07;101943.41;5008264;28;19917;-77
2022/12/20 12:47:52;;;;;;;;;;;;;;;9.28;66.93;101932.81;5033587;28;19921;-77
2022/12/20 12:50:41;;;;;;;;;;;;;;;9.30;66.67;101928.72;5022050;28;19917;-77
2022/12/20 12:53:36;;;;;;;;;;;;;;;9.20;67.18;101920.59;5021517;28;19918;-79
2022/12/20 12:56:27;;;;;;;;;;;;;;;9.25;66.97;101936.88;5032543;28;20317;-81
2022/12/20 12:59:12;;;;;;;;;;;;;;;9.23;67.41;101927.41;5020213;28;19917;-81
2022/12/20 13:02:05;;;;;;;;;;;;;;;9.21;67.31;101924.13;5033415;28;19917;-81
2022/12/20 13:04:53;;;;;;;;;;;;;;;9.28;67.01;101917.34;5032503;28;19925;-82
2022/12/20 13:07:42;;;;;;;;;;;;;;;9.30;67.10;101917.84;5018799;28;19922;-78
2022/12/20 13:10:30;;;;;;;;;;;;;;;9.40;67.02;101923.25;5034210;28;19921;-79
2022/12/20 13:13:21;;;;;;;;;;;;;;;9.51;66.15;101917.78;5025197;28;19917;-78
2022/12/20 13:16:09;;;;;;;;;;;;;;;9.42;66.37;101910.22;5028695;28;19917;-78
2022/12/20 13:19:03;;;;;;;;;;;;;;;9.54;66.30;101906.38;5031547;28;20397;-79
2022/12/20 13:21:52;;;;;;;;;;;;;;;9.38;66.64;101900.19;5012255;28;20297;-77
2022/12/20 13:25:12;;;;;;;;;;;;;;;9.27;67.07;101893.19;5021590;28;19917;-78
2022/12/20 13:28:18;;;;;;;;;;;;;;;9.37;66.85;101885.81;5028225;28;20382;-77
2022/12/20 13:31:03;;;;;;;;;;;;;;;9.59;65.55;101884.63;5022051;28;20302;-78
2022/12/20 13:33:48;;;;;;;;;;;;;;;9.65;65.48;101889.72;5019917;28;20389;-78
2022/12/20 13:36:34;;;;;;;;;;;;;;;9.32;66.11;101888.53;5018848;28;19917;-78
2022/12/20 13:39:19;;;;;;;;;;;;;;;9.14;68.17;101883.75;5040201;28;19916;-80
2022/12/20 13:42:16;;;;;;;;;;;;;;;9.56;66.12;101885.97;5020261;28;20309;-79
2022/12/20 13:45:03;;;;;;;;;;;;;;;9.63;66.02;101885.69;5033244;28;19917;-80
2022/12/20 13:47:50;;;;;;;;;;;;;;;9.58;66.16;101888.41;5013374;28;20310;-80
2022/12/20 13:50:38;;;;;;;;;;;;;;;9.36;66.62;101886.88;5033064;28;19917;-79
2022/12/20 13:53:26;;;;;;;;;;;;;;;9.38;66.92;101884.72;5023867;28;19917;-79
2022/12/20 13:56:26;;;;;;;;;;;;;;;9.35;67.26;101884.44;5043759;28;19917;-79
2022/12/20 13:59:14;;;;;;;;;;;;;;;9.39;67.19;101889.06;5020030;28;19917;-77
2022/12/20 14:01:59;;;;;;;;;;;;;;;9.43;66.83;101884.69;5022767;28;19918;-78
2022/12/20 14:04:51;;;;;;;;;;;;;;;9.36;66.94;101873.31;5021229;28;19917;-80
2022/12/20 14:07:36;;;;;;;;;;;;;;;9.41;67.07;101886.88;5018579;28;19921;-79
2022/12/20 14:10:23;;;;;;;;;;;;;;;9.40;67.04;101879.81;5036367;28;19917;-77
2022/12/20 14:13:19;;;;;;;;;;;;;;;9.59;66.17;101887.34;5024299;28;19917;-78
2022/12/20 14:16:13;;;;;;;;;;;;;;;9.55;66.27;101887.06;5029352;28;20309;-78
2022/12/20 14:19:05;;;;;;;;;;;;;;;9.51;67.02;101879.75;5021354;28;19917;-77
2022/12/20 14:21:51;;;;;;;;;;;;;;;9.71;66.12;101885.91;5015623;28;19917;-78
2022/12/20 14:24:38;;;;;;;;;;;;;;;9.55;66.56;101876.19;5025191;28;19917;-78
2022/12/20 14:27:23;;;;;;;;;;;;;;;9.55;66.81;101878.91;5036175;28;20297;-78
2022/12/20 14:30:24;;;;;;;;;;;;;;;9.72;65.89;101873.13;5035881;28;20297;-78
2022/12/20 14:33:20;;;;;;;;;;;;;;;9.77;65.89;101878.53;5036210;28;19918;-78
2022/12/20 14:36:19;;;;;;;;;;;;;;;9.85;65.22;101872.53;5046077;28;19920;-77
2022/12/20 14:39:23;;;;;;;;;;;;;;;9.72;65.56;101870.41;5015546;28;19921;-77